createdAt,value
2018-02-22T00:01:11.231Z,-2.10
2018-02-22T00:03:38.772Z,-2.00
2018-02-22T00:06:06.280Z,-2.00
2018-02-22T00:08:33.812Z,-2.00
2018-02-22T00:11:01.386Z,-2.00
2018-02-22T00:13:28.909Z,-2.10
2018-02-22T00:15:56.439Z,-2.10
2018-02-22T00:18:23.951Z,-2.20
2018-02-22T00:20:51.480Z,-2.20
2018-02-22T00:23:18.992Z,-2.20
2018-02-22T00:25:46.530Z,-2.20
2018-02-22T00:28:14.046Z,-2.10
2018-02-22T00:30:42.348Z,-2.20
2018-02-22T00:33:10.628Z,-2.10
2018-02-22T00:35:38.199Z,-2.10
2018-02-22T00:38:06.480Z,-2.10
2018-02-22T00:40:34.780Z,-2.10
2018-02-22T00:43:03.060Z,-2.10
2018-02-22T00:45:31.366Z,-2.10
2018-02-22T00:47:59.644Z,-2.10
2018-02-22T00:50:27.935Z,-2.00
2018-02-22T00:52:56.211Z,-2.00
2018-02-22T00:55:23.764Z,-2.00
2018-02-22T00:57:52.012Z,-2.00
2018-02-22T01:00:19.740Z,-2.00
2018-02-22T01:02:47.339Z,-2.00
2018-02-22T01:05:15.647Z,-2.00
2018-02-22T01:07:43.203Z,-2.00
2018-02-22T01:10:11.529Z,-2.00
2018-02-22T01:12:39.054Z,-2.00
2018-02-22T01:15:07.374Z,-2.10
2018-02-22T01:17:34.895Z,-2.10
2018-02-22T01:20:02.446Z,-2.10
2018-02-22T01:22:29.983Z,-2.20
2018-02-22T01:24:57.530Z,-2.30
2018-02-22T01:27:25.873Z,-2.50
2018-02-22T01:29:53.441Z,-2.50
2018-02-22T01:32:21.414Z,-2.40
2018-02-22T01:34:48.947Z,-2.40
2018-02-22T01:37:17.246Z,-2.50
2018-02-22T01:39:45.555Z,-2.60
2018-02-22T01:42:13.090Z,-2.60
2018-02-22T01:44:40.635Z,-2.60
2018-02-22T01:47:08.169Z,-2.50
2018-02-22T01:49:35.718Z,-2.50
2018-02-22T01:52:04.028Z,-2.50
2018-02-22T01:54:31.570Z,-2.50
2018-02-22T01:56:59.115Z,-2.50
2018-02-22T01:59:26.718Z,-2.50
2018-02-22T02:01:55.031Z,-2.60
2018-02-22T02:04:22.570Z,-2.60
2018-02-22T02:06:50.130Z,-2.60
2018-02-22T02:09:17.661Z,-2.60
2018-02-22T02:11:45.278Z,-2.80
2018-02-22T02:14:12.802Z,-2.80
2018-02-22T02:16:40.354Z,-2.80
2018-02-22T02:19:07.886Z,-2.70
2018-02-22T02:21:35.944Z,-2.70
2018-02-22T02:24:03.615Z,-2.80
2018-02-22T02:26:31.170Z,-2.70
2018-02-22T02:28:58.698Z,-2.80
2018-02-22T02:31:27.031Z,-2.80
2018-02-22T02:33:54.567Z,-2.80
2018-02-22T02:36:22.122Z,-2.80
2018-02-22T02:38:49.654Z,-2.80
2018-02-22T02:41:17.203Z,-2.70
2018-02-22T02:43:44.740Z,-2.70
2018-02-22T02:46:12.304Z,-2.70
2018-02-22T02:48:39.829Z,-2.70
2018-02-22T02:51:07.383Z,-2.70
2018-02-22T02:53:34.922Z,-2.80
2018-02-22T02:56:02.471Z,-2.80
2018-02-22T02:58:30.011Z,-2.80
2018-02-22T03:00:57.566Z,-2.80
2018-02-22T03:03:25.121Z,-2.80
2018-02-22T03:05:52.671Z,-2.70
2018-02-22T03:08:20.969Z,-2.80
2018-02-22T03:10:48.518Z,-2.80
2018-02-22T03:13:16.047Z,-2.90
2018-02-22T03:15:43.686Z,-2.90
2018-02-22T03:18:11.210Z,-2.80
2018-02-22T03:20:38.759Z,-2.80
2018-02-22T03:23:07.070Z,-2.80
2018-02-22T03:25:34.599Z,-2.80
2018-02-22T03:28:02.257Z,-2.70
2018-02-22T03:30:30.555Z,-2.80
2018-02-22T03:32:58.106Z,-2.80
2018-02-22T03:35:25.642Z,-2.80
2018-02-22T03:37:53.202Z,-2.70
2018-02-22T03:40:20.737Z,-2.70
2018-02-22T03:42:48.290Z,-2.70
2018-02-22T03:45:15.822Z,-2.70
2018-02-22T03:47:43.374Z,-2.70
2018-02-22T03:50:11.665Z,-2.60
2018-02-22T03:52:39.990Z,-2.60
2018-02-22T03:55:07.521Z,-2.70
2018-02-22T03:57:35.843Z,-2.70
2018-02-22T04:00:03.374Z,-2.70
2018-02-22T04:02:30.926Z,-2.70
2018-02-22T04:04:58.454Z,-2.60
2018-02-22T04:07:26.766Z,-2.70
2018-02-22T04:09:54.345Z,-2.70
2018-02-22T04:12:21.857Z,-2.70
2018-02-22T04:14:49.390Z,-2.70
2018-02-22T04:17:16.949Z,-2.70
2018-02-22T04:19:44.478Z,-2.70
2018-02-22T04:22:12.022Z,-2.80
2018-02-22T04:24:39.553Z,-2.80
2018-02-22T04:27:07.106Z,-2.70
2018-02-22T04:29:35.406Z,-2.80
2018-02-22T04:32:02.954Z,-2.80
2018-02-22T04:34:30.498Z,-2.80
2018-02-22T04:36:58.122Z,-2.80
2018-02-22T04:39:26.509Z,-2.80
2018-02-22T04:41:54.818Z,-2.80
2018-02-22T04:44:22.356Z,-2.80
2018-02-22T04:46:50.672Z,-2.90
2018-02-22T04:49:18.253Z,-2.90
2018-02-22T04:51:45.815Z,-2.90
2018-02-22T04:54:13.735Z,-2.90
2018-02-22T04:56:41.279Z,-3.00
2018-02-22T04:59:08.802Z,-3.00
2018-02-22T05:01:36.343Z,-3.00
2018-02-22T05:04:04.661Z,-2.90
2018-02-22T05:06:32.198Z,-3.00
2018-02-22T05:08:59.752Z,-3.00
2018-02-22T05:11:27.291Z,-3.00
2018-02-22T05:13:55.602Z,-3.00
2018-02-22T05:16:23.134Z,-3.00
2018-02-22T05:18:50.689Z,-3.00
2018-02-22T05:21:18.994Z,-3.00
2018-02-22T05:23:46.544Z,-3.00
2018-02-22T05:26:14.077Z,-3.00
2018-02-22T05:28:41.626Z,-3.00
2018-02-22T05:31:09.606Z,-3.00
2018-02-22T05:33:37.207Z,-3.00
2018-02-22T05:36:04.785Z,-3.00
2018-02-22T05:38:32.334Z,-3.00
2018-02-22T05:41:00.674Z,-3.10
2018-02-22T05:43:28.236Z,-3.10
2018-02-22T05:45:55.778Z,-3.00
2018-02-22T05:48:24.093Z,-3.00
2018-02-22T05:50:51.627Z,-3.00
2018-02-22T05:53:19.174Z,-3.00
2018-02-22T05:55:46.706Z,-3.00
2018-02-22T05:58:14.414Z,-3.00
2018-02-22T06:00:43.181Z,-2.90
2018-02-22T06:03:10.734Z,-3.00
2018-02-22T06:05:38.310Z,-2.90
2018-02-22T06:08:05.872Z,-2.90
2018-02-22T06:10:34.188Z,-2.80
2018-02-22T06:13:01.746Z,-2.80
2018-02-22T06:15:29.286Z,-2.80
2018-02-22T06:17:56.838Z,-2.70
2018-02-22T06:20:24.390Z,-2.70
2018-02-22T06:22:51.952Z,-2.70
2018-02-22T06:25:19.475Z,-2.70
2018-02-22T06:27:47.028Z,-2.70
2018-02-22T06:30:14.555Z,-2.70
2018-02-22T06:32:42.099Z,-2.70
2018-02-22T06:35:10.406Z,-2.60
2018-02-22T06:37:37.979Z,-2.70
2018-02-22T06:40:06.372Z,-2.50
2018-02-22T06:42:34.664Z,-2.50
2018-02-22T06:45:02.269Z,-2.50
2018-02-22T06:47:30.572Z,-2.40
2018-02-22T06:49:58.118Z,-2.50
2018-02-22T06:52:25.693Z,-2.40
2018-02-22T06:54:53.214Z,-2.40
2018-02-22T06:57:20.751Z,-2.40
2018-02-22T06:59:48.314Z,-2.30
2018-02-22T07:02:15.840Z,-2.30
2018-02-22T07:04:44.159Z,-2.40
2018-02-22T07:07:11.708Z,-2.30
2018-02-22T07:09:40.016Z,-2.20
2018-02-22T07:12:07.542Z,-2.20
2018-02-22T07:14:35.098Z,-2.20
2018-02-22T07:17:02.638Z,-2.20
2018-02-22T07:19:30.189Z,-2.20
2018-02-22T07:21:58.486Z,-2.10
2018-02-22T07:24:26.053Z,-2.10
2018-02-22T07:26:54.398Z,-2.10
2018-02-22T07:29:21.918Z,-2.10
2018-02-22T07:31:50.202Z,-2.10
2018-02-22T07:34:18.524Z,-2.10
2018-02-22T07:36:46.066Z,-2.10
2018-02-22T07:39:14.390Z,-2.10
2018-02-22T07:41:41.923Z,-2.10
2018-02-22T07:44:10.236Z,-2.10
2018-02-22T07:46:37.774Z,-2.10
2018-02-22T07:49:06.086Z,-1.90
2018-02-22T07:51:33.621Z,-1.90
2018-02-22T07:54:01.175Z,-1.90
2018-02-22T07:56:28.716Z,-1.90
2018-02-22T07:58:56.267Z,-1.90
2018-02-22T08:01:24.585Z,-1.80
2018-02-22T08:03:52.152Z,-1.80
2018-02-22T08:06:19.699Z,-1.70
2018-02-22T08:08:48.019Z,-1.70
2018-02-22T08:11:15.551Z,-1.70
2018-02-22T08:13:43.906Z,-1.40
2018-02-22T08:16:11.444Z,-1.50
2018-02-22T08:18:38.991Z,-1.50
2018-02-22T08:21:07.282Z,-1.30
2018-02-22T08:23:35.625Z,-1.20
2018-02-22T08:26:03.166Z,-1.30
2018-02-22T08:28:30.695Z,-1.20
2018-02-22T08:30:59.013Z,-1.10
2018-02-22T08:33:26.542Z,-1.10
2018-02-22T08:35:54.090Z,-1.00
2018-02-22T08:38:22.386Z,-0.90
2018-02-22T08:40:50.702Z,-0.90
2018-02-22T08:43:18.230Z,-0.90
2018-02-22T08:45:45.786Z,-0.80
2018-02-22T08:48:13.346Z,-0.60
2018-02-22T08:50:41.692Z,-0.60
2018-02-22T08:53:09.216Z,-0.60
2018-02-22T08:55:36.768Z,-0.60
2018-02-22T08:58:05.062Z,-0.50
2018-02-22T09:00:33.373Z,-0.60
2018-02-22T09:03:00.906Z,-0.60
2018-02-22T09:05:28.459Z,-0.60
2018-02-22T09:07:55.982Z,-0.50
2018-02-22T09:10:23.559Z,-0.40
2018-02-22T09:12:51.090Z,-0.40
2018-02-22T09:15:18.637Z,-0.20
2018-02-22T09:17:46.157Z,-0.10
2018-02-22T09:20:14.466Z,0.00
2018-02-22T09:22:41.998Z,-0.10
2018-02-22T09:25:10.520Z,-0.30
2018-02-22T09:27:38.138Z,-0.30
2018-02-22T09:30:05.686Z,-0.40
2018-02-22T09:32:33.212Z,-0.50
2018-02-22T09:35:00.758Z,-0.60
2018-02-22T09:37:28.282Z,-0.60
2018-02-22T09:39:56.598Z,-0.60
2018-02-22T09:42:24.127Z,-0.60
2018-02-22T09:44:52.444Z,-0.60
2018-02-22T09:47:20.078Z,-0.60
2018-02-22T09:49:47.626Z,-0.50
2018-02-22T09:52:15.159Z,-0.50
2018-02-22T09:54:42.706Z,-0.40
2018-02-22T09:57:10.998Z,-0.10
2018-02-22T09:59:39.306Z,0.10
2018-02-22T10:02:06.825Z,0.10
2018-02-22T10:04:34.383Z,-0.10
2018-02-22T10:07:01.918Z,-0.10
2018-02-22T10:09:29.454Z,-0.20
2018-02-22T10:11:57.010Z,-0.10
2018-02-22T10:14:24.650Z,0.10
2018-02-22T10:16:52.212Z,0.10
2018-02-22T10:19:19.738Z,0.00
2018-02-22T10:21:47.291Z,-0.10
2018-02-22T10:24:14.812Z,0.10
2018-02-22T10:26:43.135Z,0.30
2018-02-22T10:29:10.666Z,0.30
2018-02-22T10:31:39.062Z,0.40
2018-02-22T10:34:06.590Z,0.40
2018-02-22T10:36:34.152Z,0.50
2018-02-22T10:39:01.674Z,0.40
2018-02-22T10:41:29.990Z,0.50
2018-02-22T10:43:58.755Z,0.50
2018-02-22T10:46:27.066Z,0.70
2018-02-22T10:48:54.605Z,0.60
2018-02-22T10:51:22.153Z,0.60
2018-02-22T10:53:49.693Z,0.50
2018-02-22T10:56:17.236Z,0.40
2018-02-22T10:58:45.526Z,0.60
2018-02-22T11:01:19.445Z,0.70
2018-02-22T11:03:47.738Z,0.70
2018-02-22T11:06:16.047Z,0.80
2018-02-22T11:08:43.574Z,0.80
2018-02-22T11:11:11.119Z,0.70
2018-02-22T11:13:38.662Z,0.90
2018-02-22T11:16:06.209Z,1.10
2018-02-22T11:18:34.511Z,1.10
2018-02-22T11:21:02.811Z,1.10
2018-02-22T11:23:30.338Z,1.10
2018-02-22T11:25:57.890Z,1.10
2018-02-22T11:28:25.416Z,1.10
2018-02-22T11:30:53.730Z,1.10
2018-02-22T11:33:21.268Z,1.10
2018-02-22T11:35:48.823Z,1.20
2018-02-22T11:38:16.345Z,1.30
2018-02-22T11:40:43.888Z,1.30
2018-02-22T11:43:11.418Z,1.50
2018-02-22T11:45:38.967Z,1.70
2018-02-22T11:48:06.487Z,1.40
2018-02-22T11:50:34.790Z,1.50
2018-02-22T11:53:03.103Z,1.40
2018-02-22T11:55:30.632Z,1.30
2018-02-22T11:57:58.191Z,1.30
2018-02-22T12:00:25.742Z,1.30
2018-02-22T12:02:54.050Z,1.40
2018-02-22T12:05:21.579Z,1.30
2018-02-22T12:07:49.126Z,1.40
2018-02-22T12:10:17.428Z,1.50
2018-02-22T12:12:44.984Z,1.60
2018-02-22T12:15:13.287Z,1.80
2018-02-22T12:17:40.826Z,1.70
2018-02-22T12:20:08.367Z,1.70
2018-02-22T12:22:35.902Z,1.70
2018-02-22T12:25:03.428Z,1.50
2018-02-22T12:27:30.967Z,1.50
2018-02-22T12:29:58.491Z,1.50
2018-02-22T12:32:26.796Z,1.80
2018-02-22T12:34:55.086Z,1.80
2018-02-22T12:37:23.402Z,1.90
2018-02-22T12:39:50.926Z,1.90
2018-02-22T12:42:18.472Z,2.00
2018-02-22T12:44:45.994Z,2.20
2018-02-22T12:47:14.322Z,1.70
2018-02-22T12:49:41.846Z,1.70
2018-02-22T12:52:10.150Z,1.90
2018-02-22T12:54:37.677Z,1.90
2018-02-22T12:57:05.227Z,1.90
2018-02-22T12:59:32.748Z,1.90
2018-02-22T13:02:01.060Z,1.90
2018-02-22T13:04:28.585Z,1.90
2018-02-22T13:06:56.129Z,2.00
2018-02-22T13:09:23.651Z,2.20
2018-02-22T13:11:51.201Z,2.30
2018-02-22T13:14:18.734Z,2.20
2018-02-22T13:16:46.283Z,2.10
2018-02-22T13:19:14.578Z,2.10
2018-02-22T13:21:42.118Z,2.10
2018-02-22T13:24:09.694Z,2.10
2018-02-22T13:26:37.233Z,2.10
2018-02-22T13:29:05.588Z,2.20
2018-02-22T13:31:33.129Z,2.20
2018-02-22T13:34:12.697Z,2.20
2018-02-22T13:36:41.012Z,2.30
2018-02-22T13:39:09.189Z,2.30
2018-02-22T13:41:36.750Z,2.40
2018-02-22T13:44:16.811Z,2.40
2018-02-22T13:46:45.121Z,2.30
2018-02-22T13:49:24.502Z,2.30
2018-02-22T13:51:52.047Z,2.40
2018-02-22T13:54:19.571Z,2.40
2018-02-22T13:56:59.102Z,2.30
2018-02-22T13:59:26.637Z,2.10
2018-02-22T14:02:06.061Z,2.00
2018-02-22T14:04:33.590Z,2.00
2018-02-22T14:07:01.151Z,2.10
2018-02-22T14:09:28.675Z,2.00
2018-02-22T14:11:56.263Z,1.90
2018-02-22T14:14:24.550Z,1.70
2018-02-22T14:16:52.851Z,1.70
2018-02-22T14:19:20.398Z,1.70
2018-02-22T14:21:47.919Z,1.60
2018-02-22T14:24:15.466Z,1.70
2018-02-22T14:26:43.013Z,1.80
2018-02-22T14:29:10.559Z,1.70
2018-02-22T14:31:38.090Z,1.70
2018-02-22T14:34:05.642Z,1.70
2018-02-22T14:36:33.929Z,1.70
2018-02-22T14:39:02.302Z,1.70
2018-02-22T14:41:29.827Z,1.70
2018-02-22T14:43:57.363Z,1.70
2018-02-22T14:46:25.650Z,1.70
2018-02-22T14:48:53.998Z,1.70
2018-02-22T14:51:21.523Z,1.70
2018-02-22T14:53:49.830Z,1.80
2018-02-22T14:56:17.362Z,1.80
2018-02-22T14:58:44.931Z,1.80
2018-02-22T15:01:12.459Z,1.70
2018-02-22T15:03:40.010Z,1.80
2018-02-22T15:06:07.571Z,1.70
2018-02-22T15:08:35.882Z,1.80
2018-02-22T15:11:03.411Z,1.80
2018-02-22T15:13:30.956Z,1.90
2018-02-22T15:15:58.482Z,1.80
2018-02-22T15:18:26.027Z,1.80
2018-02-22T15:20:53.549Z,1.80
2018-02-22T15:23:21.102Z,1.70
2018-02-22T15:25:48.630Z,1.70
2018-02-22T15:28:16.967Z,1.70
2018-02-22T15:30:44.508Z,1.70
2018-02-22T15:33:12.050Z,1.60
2018-02-22T15:35:39.574Z,1.50
2018-02-22T15:38:07.882Z,1.60
2018-02-22T15:40:35.425Z,1.50
2018-02-22T15:43:03.755Z,1.60
2018-02-22T15:45:31.479Z,1.60
2018-02-22T15:47:59.808Z,1.60
2018-02-22T15:50:27.330Z,1.60
2018-02-22T15:52:54.874Z,1.60
2018-02-22T15:55:22.419Z,1.60
2018-02-22T15:57:49.956Z,1.60
2018-02-22T16:00:17.503Z,1.60
2018-02-22T16:02:45.032Z,1.60
2018-02-22T16:05:12.586Z,1.60
2018-02-22T16:07:40.881Z,1.60
2018-02-22T16:10:09.193Z,1.60
2018-02-22T16:12:36.722Z,1.60
2018-02-22T16:15:04.274Z,1.70
2018-02-22T16:17:31.816Z,1.70
2018-02-22T16:19:59.382Z,1.70
2018-02-22T16:22:26.919Z,1.70
2018-02-22T16:24:55.234Z,1.60
2018-02-22T16:27:22.770Z,1.70
2018-02-22T16:29:50.337Z,1.60
2018-02-22T16:32:17.866Z,1.50
2018-02-22T16:34:45.412Z,1.50
2018-02-22T16:37:13.702Z,1.40
2018-02-22T16:39:41.270Z,1.40
2018-02-22T16:42:09.586Z,1.40
2018-02-22T16:44:37.129Z,1.40
2018-02-22T16:47:05.423Z,1.30
2018-02-22T16:49:33.752Z,1.30
2018-02-22T16:52:01.312Z,1.30
2018-02-22T16:54:28.893Z,1.30
2018-02-22T16:56:56.581Z,1.20
2018-02-22T16:59:24.143Z,1.30
2018-02-22T17:01:51.661Z,1.20
2018-02-22T17:04:19.240Z,1.20
2018-02-22T17:06:46.781Z,1.20
2018-02-22T17:09:14.331Z,1.10
2018-02-22T17:11:41.862Z,1.10
2018-02-22T17:14:10.179Z,1.10
2018-02-22T17:16:37.703Z,1.10
2018-02-22T17:19:05.919Z,1.00
2018-02-22T17:21:33.472Z,1.00
2018-02-22T17:24:01.804Z,0.90
2018-02-22T17:26:34.942Z,0.90
2018-02-22T17:29:08.114Z,0.90
2018-02-22T17:31:41.310Z,0.90
2018-02-22T17:34:08.858Z,0.80
2018-02-22T17:36:40.767Z,0.80
2018-02-22T17:39:18.286Z,0.80
2018-02-22T17:41:45.825Z,0.80
2018-02-22T17:44:13.380Z,0.80
2018-02-22T17:46:41.682Z,0.80
2018-02-22T17:49:09.228Z,0.80
2018-02-22T17:51:36.750Z,0.70
2018-02-22T17:54:04.322Z,0.70
2018-02-22T17:56:31.927Z,0.80
2018-02-22T17:58:59.510Z,0.70
2018-02-22T18:01:27.057Z,0.80
2018-02-22T18:03:54.598Z,0.70
2018-02-22T18:06:22.155Z,0.80
2018-02-22T18:08:49.710Z,0.80
2018-02-22T18:11:17.259Z,0.80
2018-02-22T18:13:44.790Z,0.80
2018-02-22T18:16:12.339Z,0.80
2018-02-22T18:18:40.679Z,0.90
2018-02-22T18:21:08.226Z,0.90
2018-02-22T18:23:35.777Z,1.00
2018-02-22T18:26:03.338Z,1.00
2018-02-22T18:28:31.659Z,1.00
2018-02-22T18:30:59.470Z,1.00
2018-02-22T18:33:26.999Z,1.10
2018-02-22T18:35:54.544Z,1.00
2018-02-22T18:38:22.074Z,1.10
2018-02-22T18:40:55.313Z,1.10
2018-02-22T18:43:28.459Z,1.00
2018-02-22T18:45:56.009Z,1.00
2018-02-22T18:48:24.309Z,1.10
2018-02-22T18:50:51.862Z,1.10
2018-02-22T18:53:19.386Z,1.10
2018-02-22T18:55:46.936Z,1.10
2018-02-22T18:58:14.470Z,1.00
2018-02-22T19:00:42.010Z,1.10
2018-02-22T19:03:09.547Z,1.10
2018-02-22T19:05:37.121Z,1.00
2018-02-22T19:08:04.666Z,1.10
2018-02-22T19:10:32.998Z,1.10
2018-02-22T19:13:00.542Z,1.00
2018-02-22T19:15:28.087Z,1.00
2018-02-22T19:17:55.616Z,1.00
2018-02-22T19:20:23.182Z,1.00
2018-02-22T19:22:50.744Z,1.00
2018-02-22T19:25:18.291Z,1.00
2018-02-22T19:27:45.816Z,1.00
2018-02-22T19:30:13.363Z,1.00
2018-02-22T19:32:40.894Z,0.90
2018-02-22T19:35:08.444Z,0.90
2018-02-22T19:37:35.971Z,0.90
2018-02-22T19:40:03.502Z,0.90
2018-02-22T19:42:31.060Z,0.90
2018-02-22T19:44:58.595Z,0.90
2018-02-22T19:47:26.138Z,0.90
2018-02-22T19:49:54.503Z,0.90
2018-02-22T19:52:22.052Z,0.80
2018-02-22T19:54:49.578Z,0.90
2018-02-22T19:57:17.134Z,0.90
2018-02-22T19:59:45.433Z,0.90
2018-02-22T20:02:13.747Z,0.90
2018-02-22T20:04:41.275Z,0.80
2018-02-22T20:07:08.823Z,0.90
2018-02-22T20:09:36.351Z,0.90
2018-02-22T20:12:03.902Z,0.90
2018-02-22T20:14:32.194Z,0.80
2018-02-22T20:17:00.522Z,0.80
2018-02-22T20:19:28.062Z,0.80
2018-02-22T20:21:56.378Z,0.80
2018-02-22T20:24:24.675Z,0.70
2018-02-22T20:26:52.225Z,0.80
2018-02-22T20:29:19.752Z,0.80
2018-02-22T20:31:47.295Z,0.80
2018-02-22T20:34:14.838Z,0.80
2018-02-22T20:36:43.142Z,0.80
2018-02-22T20:39:10.939Z,0.80
2018-02-22T20:41:38.496Z,0.70
2018-02-22T20:44:06.022Z,0.70
2018-02-22T20:46:33.571Z,0.70
2018-02-22T20:49:01.114Z,0.70
2018-02-22T20:51:38.578Z,0.70
2018-02-22T20:54:06.103Z,0.70
2018-02-22T20:56:33.671Z,0.70
2018-02-22T20:59:01.202Z,0.70
2018-02-22T21:01:29.530Z,0.70
2018-02-22T21:03:57.063Z,0.70
2018-02-22T21:06:25.394Z,0.70
2018-02-22T21:08:52.921Z,0.70
2018-02-22T21:11:21.236Z,0.60
2018-02-22T21:13:48.768Z,0.60
2018-02-22T21:16:16.321Z,0.60
2018-02-22T21:18:43.854Z,0.60
2018-02-22T21:21:11.414Z,0.60
2018-02-22T21:23:38.939Z,0.60
2018-02-22T21:26:06.464Z,0.60
2018-02-22T21:28:34.021Z,0.60
2018-02-22T21:31:02.322Z,0.60
2018-02-22T21:33:29.863Z,0.60
2018-02-22T21:35:57.390Z,0.50
2018-02-22T21:38:24.934Z,0.50
2018-02-22T21:40:52.474Z,0.50
2018-02-22T21:43:20.804Z,0.50
2018-02-22T21:45:48.330Z,0.50
2018-02-22T21:48:15.881Z,0.50
2018-02-22T21:50:44.187Z,0.50
2018-02-22T21:53:11.748Z,0.50
2018-02-22T21:55:39.278Z,0.40
2018-02-22T21:58:06.845Z,0.40
2018-02-22T22:00:35.143Z,0.40
2018-02-22T22:03:02.688Z,0.40
2018-02-22T22:05:30.979Z,0.40
2018-02-22T22:07:58.568Z,0.40
2018-02-22T22:10:26.870Z,0.40
2018-02-22T22:12:54.427Z,0.40
2018-02-22T22:15:22.722Z,0.40
2018-02-22T22:17:50.281Z,0.30
2018-02-22T22:20:18.568Z,0.30
2018-02-22T22:22:47.639Z,0.30
2018-02-22T22:25:15.166Z,0.30
2018-02-22T22:27:42.772Z,0.30
2018-02-22T22:30:10.310Z,0.30
2018-02-22T22:32:37.851Z,0.30
2018-02-22T22:35:05.382Z,0.30
2018-02-22T22:37:32.945Z,0.30
2018-02-22T22:40:00.474Z,0.20
2018-02-22T22:42:28.783Z,0.20
2018-02-22T22:44:56.346Z,0.20
2018-02-22T22:47:24.663Z,0.20
2018-02-22T22:49:52.193Z,0.20
2018-02-22T22:52:19.766Z,0.20
2018-02-22T22:54:47.298Z,0.20
2018-02-22T22:57:15.611Z,0.20
2018-02-22T22:59:43.950Z,0.20
2018-02-22T23:02:11.523Z,0.10
2018-02-22T23:04:39.054Z,0.10
2018-02-22T23:07:06.586Z,0.10
2018-02-22T23:09:34.144Z,0.10
2018-02-22T23:12:01.704Z,0.00
2018-02-22T23:14:29.254Z,0.10
2018-02-22T23:16:57.550Z,0.10
2018-02-22T23:19:25.853Z,0.10
2018-02-22T23:21:53.390Z,0.00
2018-02-22T23:24:20.938Z,0.00
2018-02-22T23:26:48.466Z,0.00
2018-02-22T23:29:16.801Z,0.00
2018-02-22T23:31:44.338Z,0.00
2018-02-22T23:34:12.806Z,0.00
2018-02-22T23:36:41.463Z,0.00
2018-02-22T23:39:09.014Z,0.00
2018-02-22T23:41:42.138Z,-0.10
2018-02-22T23:44:10.456Z,-0.10
2018-02-22T23:46:37.994Z,-0.20
2018-02-22T23:49:05.559Z,-0.10
2018-02-22T23:51:33.114Z,-0.10
2018-02-22T23:54:00.655Z,-0.10
2018-02-22T23:56:28.955Z,-0.20
2018-02-22T23:58:56.542Z,-0.20
